Pagrindinis puslapis
METAR-TAF:

METAR-TAF

Oro uostai :

Pjačenca, Italija

platuma: 44-55N, ilguma: 009-44E, Aukštis: 134 m

Dabartinis oras

Ataskaita buvo paskelbta 29 minutes, ne 05:55 UTC
Vėjas 4 kt iš Pietryčių
Temperatūra 18°C
Drėgmė 100%
Slėgis 1004 hPa
Matomumas 10 km arba daugiau
nėra debesų žemiau 1500 m ir nėra kamuolinių lietaus debesų

METAR: LIMS 070555Z 14004KT CAVOK 18/18 Q1004 RMK BKN SCT120 BKN140 VIS MIN 9999 WIND THR30 15003KT BLU

Laikas: 08:24 (06:24 UTC)


TAF: trūkstamas

Orai ataskaitas ir orų prognozės (METAR, TAF).

turimą stotys yra geltonos ir raudonos taškus žemėlapyje.

Perkelti pele per norėdami pamatyti stoties vardą.

Tada spustelėkite, norėdami matyti oro stebėjimo ir prognozės.

Norėdami pakeisti žemėlapį: spustelėkite ant žalios mygtukų su juodo kryžiaus žemyn,; žalią mygtuką su brūkšneliu, jei norite nutolinti; arba žalių rodyklių gretimoms žemėlapius.


METAR-TAF: